Souda — SVBH5 — position and weather

sailwx.info

Track history (hours):
 
Tides and Currents Weather Stations Pressure Air Temp Water Temp Dewpoint Dewpoint Depression Visibility Wind Speed Wind Dir Waves Ship Positions

Souda

Last reported at 2015-Apr-18 12:10 UTC. Time now 2015-Apr-19 14:07 UTC.
Position N 36°38' E 024°01'.

Length 88 m; draft 6.4 m.

Type: Tanker. MMSI: 241109000.

Date/timePositionNaut miles runAvg speedWind from/ knotsBaromVisibWave heightAir tempDewpointWater temp
2015-Apr-18 12:10N 36°38' E 024°01'6 6.8
2015-Apr-18 11:13N 36°45' E 023°59'43 7.2
2015-Apr-18 05:13N 37°27' E 023°47'6 7.8
2015-Apr-18 04:31N 37°32' E 023°45'8 8.0
2015-Apr-18 03:33N 37°40' E 023°43'7 7.5
2015-Apr-18 02:33N 37°46' E 023°38'7 6.6
2015-Apr-18 01:33N 37°50' E 023°31'8 7.8
2015-Apr-18 00:33N 37°51' E 023°22'10 8.2
2015-Apr-17 23:19N 37°53' E 023°09'3 0.1
2015-Apr-16 19:32N 37°55' E 023°06'1 0.1
2015-Apr-16 08:18N 37°54' E 023°06'5 7.0
2015-Apr-16 07:33N 37°53' E 023°13'9 8.9
2015-Apr-16 06:33N 37°52' E 023°24'8 8.4
2015-Apr-16 05:33N 37°55' E 023°34'3 0.3
2015-Apr-15 20:28N 37°57' E 023°35'0 0.0
2015-Apr-15 19:31N 37°57' E 023°35'0 0.0
2015-Apr-15 18:31N 37°57' E 023°35'1 0.0
2015-Apr-15 04:33N 37°57' E 023°35'5 5.1
2015-Apr-15 03:33N 37°52' E 023°34'5 4.8
2015-Apr-15 02:32N 37°50' E 023°28'9 8.4
2015-Apr-15 01:31N 37°52' E 023°18'8 8.5
2015-Apr-15 00:33N 37°54' E 023°08'2 0.1
2015-Apr-14 02:28N 37°55' E 023°05'0 0.0
2015-Apr-14 01:33N 37°55' E 023°05'1 0.1
2015-Apr-13 15:11N 37°54' E 023°04'0 0.0
2015-Apr-13 13:05N 37°54' E 023°04'2 0.5
2015-Apr-13 08:34N 37°54' E 023°07'8 8.3
2015-Apr-13 07:33N 37°52' E 023°18'8 8.5
2015-Apr-13 06:33N 37°50' E 023°28'7 6.9
2015-Apr-13 05:33N 37°55' E 023°34'3 2.4
2015-Apr-13 04:29N 37°57' E 023°35'0 0.0
2015-Apr-13 03:26N 37°57' E 023°35'0 0.0
2015-Apr-13 02:32N 37°57' E 023°35'0 0.0
2015-Apr-13 01:32N 37°57' E 023°35'0 0.0
2015-Apr-13 00:32N 37°57' E 023°35'0 0.0
2015-Apr-12 23:32N 37°57' E 023°35'0 0.0
2015-Apr-12 22:32N 37°57' E 023°35'0 0.0
2015-Apr-12 21:32N 37°57' E 023°35'0 0.0
2015-Apr-12 20:32N 37°57' E 023°35'0 0.0
2015-Apr-12 19:32N 37°57' E 023°35'0 0.0
2015-Apr-12 18:32N 37°57' E 023°35'0 0.0
2015-Apr-12 17:29N 37°57' E 023°35'0 0.0
2015-Apr-12 16:32N 37°57' E 023°35'0 0.0
2015-Apr-12 15:32N 37°57' E 023°35'0 0.0
2015-Apr-12 14:29N 37°57' E 023°35'0 0.0
2015-Apr-12 13:32N 37°57' E 023°35'0 0.0
2015-Apr-12 12:32N 37°57' E 023°35'0 0.0
2015-Apr-12 11:32N 37°57' E 023°35'0 0.0
2015-Apr-12 10:26N 37°57' E 023°35'0 0.0
2015-Apr-12 09:29N 37°57' E 023°35'0 0.0
2015-Apr-12 08:29N 37°57' E 023°35'0 0.0
2015-Apr-12 07:29N 37°57' E 023°35'0 0.0
2015-Apr-12 06:29N 37°57' E 023°35'0 0.0
2015-Apr-12 05:32N 37°57' E 023°35'0 0.3
2015-Apr-12 04:33N 37°57' E 023°35'3 2.5
2015-Apr-12 03:33N 37°55' E 023°34'0 0.0
2015-Apr-12 02:33N 37°55' E 023°34'0 0.0
2015-Apr-12 01:33N 37°55' E 023°34'0 0.0
2015-Apr-12 00:33N 37°55' E 023°34'0 0.0
2015-Apr-11 23:32N 37°55' E 023°34'0 0.0
2015-Apr-11 22:33N 37°55' E 023°34'0 0.1
2015-Apr-11 21:33N 37°55' E 023°34'1 1.2
2015-Apr-11 20:33N 37°54' E 023°34'7 7.1
2015-Apr-11 19:33N 37°50' E 023°26'11 8.2
2015-Apr-11 18:12N 37°53' E 023°13'6 8.1
2015-Apr-11 17:27N 37°55' E 023°05'1 0.0
2015-Apr-10 15:11N 37°54' E 023°06'0 0.0
2015-Apr-10 12:14N 37°55' E 023°06'0 0.0
2015-Apr-10 11:11N 37°55' E 023°06'0 0.1
2015-Apr-10 08:05N 37°54' E 023°06'3 5.2
2015-Apr-10 07:33N 37°53' E 023°09'9 8.7
2015-Apr-10 06:33N 37°51' E 023°20'9 8.5
2015-Apr-10 05:33N 37°50' E 023°31'8 8.1
2015-Apr-10 04:33N 37°57' E 023°35'1 0.5
2015-Apr-10 03:32N 37°57' E 023°35'0 0.0
2015-Apr-10 02:32N 37°57' E 023°35'0 0.0
2015-Apr-10 01:23N 37°57' E 023°35'0 0.0
2015-Apr-10 00:32N 37°57' E 023°35'0 0.0
2015-Apr-09 23:32N 37°57' E 023°35'0 0.0
2015-Apr-09 22:29N 37°57' E 023°35'0 0.0
2015-Apr-09 21:32N 37°57' E 023°35'0 0.0
2015-Apr-09 20:26N 37°57' E 023°35'0 0.0
2015-Apr-09 19:32N 37°57' E 023°35'0 0.0
2015-Apr-09 18:32N 37°57' E 023°35'0 0.0
2015-Apr-09 17:29N 37°57' E 023°35'0 0.0
2015-Apr-09 16:29N 37°57' E 023°35'0 0.0
2015-Apr-09 15:32N 37°57' E 023°35'0 0.0
2015-Apr-09 14:32N 37°57' E 023°35'0 0.0
2015-Apr-09 13:32N 37°57' E 023°35'0 0.0
2015-Apr-09 12:29N 37°57' E 023°35'0 0.0
2015-Apr-09 11:29N 37°57' E 023°35'0 0.0
2015-Apr-09 10:26N 37°57' E 023°35'0 0.0
2015-Apr-09 09:32N 37°57' E 023°35'0 0.0
2015-Apr-09 08:29N 37°57' E 023°35'0 0.0
2015-Apr-09 07:29N 37°57' E 023°35'0 0.0
2015-Apr-09 06:26N 37°57' E 023°35'0 0.1
2015-Apr-09 05:33N 37°57' E 023°35'3 3.0
2015-Apr-09 04:33N 37°55' E 023°34'1 0.7
2015-Apr-09 03:33N 37°54' E 023°33'0 0.0
2015-Apr-09 02:33N 37°54' E 023°33'0 0.0
2015-Apr-09 01:33N 37°54' E 023°33'0 0.0
2015-Apr-09 00:33N 37°54' E 023°33'1 0.7
2015-Apr-08 23:33N 37°53' E 023°33'5 4.7
2015-Apr-08 22:34N 37°50' E 023°29'8 8.3
2015-Apr-08 21:34N 37°51' E 023°19'10 8.2
2015-Apr-08 20:24N 37°54' E 023°07'  
Track history (hours):
 
Tides and Currents Weather Stations Pressure Air Temp Water Temp Dewpoint Dewpoint Depression Visibility Wind Speed Wind Dir Waves Ship Positions

Souda

Last reported at 2015-Apr-18 12:10 UTC. Time now 2015-Apr-19 14:07 UTC.
Position N 36°38' E 024°01'.

Length 88 m; draft 6.4 m.

Type: Tanker. MMSI: 241109000.

Date/timePositionNaut miles runAvg speedWind from/ knotsBaromVisibWave heightAir tempDewpointWater temp
2015-Apr-18 12:10N 36°38' E 024°01'6 6.8
2015-Apr-18 11:13N 36°45' E 023°59'43 7.2
2015-Apr-18 05:13N 37°27' E 023°47'6 7.8
2015-Apr-18 04:31N 37°32' E 023°45'8 8.0
2015-Apr-18 03:33N 37°40' E 023°43'7 7.5
2015-Apr-18 02:33N 37°46' E 023°38'7 6.6
2015-Apr-18 01:33N 37°50' E 023°31'8 7.8
2015-Apr-18 00:33N 37°51' E 023°22'10 8.2
2015-Apr-17 23:19N 37°53' E 023°09'3 0.1
2015-Apr-16 19:32N 37°55' E 023°06'1 0.1
2015-Apr-16 08:18N 37°54' E 023°06'5 7.0
2015-Apr-16 07:33N 37°53' E 023°13'9 8.9
2015-Apr-16 06:33N 37°52' E 023°24'8 8.4
2015-Apr-16 05:33N 37°55' E 023°34'3 0.3
2015-Apr-15 20:28N 37°57' E 023°35'0 0.0
2015-Apr-15 19:31N 37°57' E 023°35'0 0.0
2015-Apr-15 18:31N 37°57' E 023°35'1 0.0
2015-Apr-15 04:33N 37°57' E 023°35'5 5.1
2015-Apr-15 03:33N 37°52' E 023°34'5 4.8
2015-Apr-15 02:32N 37°50' E 023°28'9 8.4
2015-Apr-15 01:31N 37°52' E 023°18'8 8.5
2015-Apr-15 00:33N 37°54' E 023°08'2 0.1
2015-Apr-14 02:28N 37°55' E 023°05'0 0.0
2015-Apr-14 01:33N 37°55' E 023°05'1 0.1
2015-Apr-13 15:11N 37°54' E 023°04'0 0.0
2015-Apr-13 13:05N 37°54' E 023°04'2 0.5
2015-Apr-13 08:34N 37°54' E 023°07'8 8.3
2015-Apr-13 07:33N 37°52' E 023°18'8 8.5
2015-Apr-13 06:33N 37°50' E 023°28'7 6.9
2015-Apr-13 05:33N 37°55' E 023°34'3 2.4
2015-Apr-13 04:29N 37°57' E 023°35'0 0.0
2015-Apr-13 03:26N 37°57' E 023°35'0 0.0
2015-Apr-13 02:32N 37°57' E 023°35'0 0.0
2015-Apr-13 01:32N 37°57' E 023°35'0 0.0
2015-Apr-13 00:32N 37°57' E 023°35'0 0.0
2015-Apr-12 23:32N 37°57' E 023°35'0 0.0
2015-Apr-12 22:32N 37°57' E 023°35'0 0.0
2015-Apr-12 21:32N 37°57' E 023°35'0 0.0
2015-Apr-12 20:32N 37°57' E 023°35'0 0.0
2015-Apr-12 19:32N 37°57' E 023°35'0 0.0
2015-Apr-12 18:32N 37°57' E 023°35'0 0.0
2015-Apr-12 17:29N 37°57' E 023°35'0 0.0
2015-Apr-12 16:32N 37°57' E 023°35'0 0.0
2015-Apr-12 15:32N 37°57' E 023°35'0 0.0
2015-Apr-12 14:29N 37°57' E 023°35'0 0.0
2015-Apr-12 13:32N 37°57' E 023°35'0 0.0
2015-Apr-12 12:32N 37°57' E 023°35'0 0.0
2015-Apr-12 11:32N 37°57' E 023°35'0 0.0
2015-Apr-12 10:26N 37°57' E 023°35'0 0.0
2015-Apr-12 09:29N 37°57' E 023°35'0 0.0
2015-Apr-12 08:29N 37°57' E 023°35'0 0.0
2015-Apr-12 07:29N 37°57' E 023°35'0 0.0
2015-Apr-12 06:29N 37°57' E 023°35'0 0.0
2015-Apr-12 05:32N 37°57' E 023°35'0 0.3
2015-Apr-12 04:33N 37°57' E 023°35'3 2.5
2015-Apr-12 03:33N 37°55' E 023°34'0 0.0
2015-Apr-12 02:33N 37°55' E 023°34'0 0.0
2015-Apr-12 01:33N 37°55' E 023°34'0 0.0
2015-Apr-12 00:33N 37°55' E 023°34'0 0.0
2015-Apr-11 23:32N 37°55' E 023°34'0 0.0
2015-Apr-11 22:33N 37°55' E 023°34'0 0.1
2015-Apr-11 21:33N 37°55' E 023°34'1 1.2
2015-Apr-11 20:33N 37°54' E 023°34'7 7.1
2015-Apr-11 19:33N 37°50' E 023°26'11 8.2
2015-Apr-11 18:12N 37°53' E 023°13'6 8.1
2015-Apr-11 17:27N 37°55' E 023°05'1 0.0
2015-Apr-10 15:11N 37°54' E 023°06'0 0.0
2015-Apr-10 12:14N 37°55' E 023°06'0 0.0
2015-Apr-10 11:11N 37°55' E 023°06'0 0.1
2015-Apr-10 08:05N 37°54' E 023°06'3 5.2
2015-Apr-10 07:33N 37°53' E 023°09'9 8.7
2015-Apr-10 06:33N 37°51' E 023°20'9 8.5
2015-Apr-10 05:33N 37°50' E 023°31'8 8.1
2015-Apr-10 04:33N 37°57' E 023°35'1 0.5
2015-Apr-10 03:32N 37°57' E 023°35'0 0.0
2015-Apr-10 02:32N 37°57' E 023°35'0 0.0
2015-Apr-10 01:23N 37°57' E 023°35'0 0.0
2015-Apr-10 00:32N 37°57' E 023°35'0 0.0
2015-Apr-09 23:32N 37°57' E 023°35'0 0.0
2015-Apr-09 22:29N 37°57' E 023°35'0 0.0
2015-Apr-09 21:32N 37°57' E 023°35'0 0.0
2015-Apr-09 20:26N 37°57' E 023°35'0 0.0
2015-Apr-09 19:32N 37°57' E 023°35'0 0.0
2015-Apr-09 18:32N 37°57' E 023°35'0 0.0
2015-Apr-09 17:29N 37°57' E 023°35'0 0.0
2015-Apr-09 16:29N 37°57' E 023°35'0 0.0
2015-Apr-09 15:32N 37°57' E 023°35'0 0.0
2015-Apr-09 14:32N 37°57' E 023°35'0 0.0
2015-Apr-09 13:32N 37°57' E 023°35'0 0.0
2015-Apr-09 12:29N 37°57' E 023°35'0 0.0
2015-Apr-09 11:29N 37°57' E 023°35'0 0.0
2015-Apr-09 10:26N 37°57' E 023°35'0 0.0
2015-Apr-09 09:32N 37°57' E 023°35'0 0.0
2015-Apr-09 08:29N 37°57' E 023°35'0 0.0
2015-Apr-09 07:29N 37°57' E 023°35'0 0.0
2015-Apr-09 06:26N 37°57' E 023°35'0 0.1
2015-Apr-09 05:33N 37°57' E 023°35'3 3.0
2015-Apr-09 04:33N 37°55' E 023°34'1 0.7
2015-Apr-09 03:33N 37°54' E 023°33'0 0.0
2015-Apr-09 02:33N 37°54' E 023°33'0 0.0
2015-Apr-09 01:33N 37°54' E 023°33'0 0.0
2015-Apr-09 00:33N 37°54' E 023°33'1 0.7
2015-Apr-08 23:33N 37°53' E 023°33'5 4.7
2015-Apr-08 22:34N 37°50' E 023°29'8 8.3
2015-Apr-08 21:34N 37°51' E 023°19'10 8.2
2015-Apr-08 20:24N 37°54' E 023°07'  

Dump ship's entire track history